LFBDLFBL

Guest
Details From LFBD - Bordeaux Merignac
To LFBL - Limoges Bellegarde
Flight Number -
Tags Generated
Created
Modified
Stats Distance 101 nm / 187 km
Max Altitude 0 ft / 0 m
Waypoints 2
Social Downloads 6
Likes 0
Share VATSIM

Download

Looking for another format? Having issues loading an existing format? Contact us
Advertisement - Login to hide

Notes

Generated

Route

LFBD LFBL

ID Type Via Altitude Latitude Longitude Leg Dist Tot Dist Heading (true) Name
O LFBD APT - 0 ft / 0 m 44.83157˚ -0.72924˚ - 0 nm - -
O LFBL APT - 0 ft / 0 m 45.85249˚ 1.17254˚ 101 nm 101 nm 52° / 53° -

Altitude Profile

Advertisement - Login to hide

LFBD

Details ICAO LFBD (BOD)
Name Bordeaux Merignac
Region France
Timezone Europe/Paris (UTC+1.0)
Stats Elevation 166 ft / 51 m (AMSL)
Location 44.828762° -0.714755°
Runways 2
Magnetic Variation 0.065° W

METAR

LFBD 181830Z AUTO 03015KT CAVOK 09/05 Q1028 NOSIG

Decode

TAF

TAF TAF LFBD 181700Z 1818/1924 01010KT CAVOK PROB40 TEMPO 1902/1909 2000 BCFG BKN004 PROB40 TEMPO 1919/1924 MIFG TX09/1818Z TN01/1905Z

Decode

Departure Runways

ID Width Length Bearing (true) Bearing (mag) Surface Threshold Offset Overrun Length
05 148 ft / 45 m 10,164 ft / 3,098 m 45.48° 45.55° Asphalt 26 ft / 8 m 1,145 ft / 349 m
11 148 ft / 45 m 7,931 ft / 2,417 m 106.45° 106.52° Asphalt 26 ft / 8 m 1,198 ft / 365 m
23 148 ft / 45 m 10,164 ft / 3,098 m 225.50° 225.57° Asphalt 39 ft / 12 m 1,266 ft / 386 m
29 148 ft / 45 m 7,931 ft / 2,417 m 286.47° 286.54° Asphalt 33 ft / 10 m 1,201 ft / 366 m

LFBL

Details ICAO LFBL (LIG)
Name Limoges Bellegarde
Region France
Timezone Europe/Paris (UTC+1.0)
Stats Elevation 1,300 ft / 396 m (AMSL)
Location 45.861896° 1.181368°
Runways 1
Magnetic Variation 0.424° E

METAR

LFBL 181830Z AUTO 03014KT 9999 SCT020 BKN026 BKN031 04/02 Q1026 BECMG BKN007 BKN020

Decode

TAF

TAF TAF LFBL 181700Z 1818/1918 03010KT 9999 SCT025 BKN035 BECMG 1819/1821 BKN007 BKN020 BECMG 1900/1902 4000 BR OVC003 PROB30 TEMPO 1903/1908 0600 FG VV/// BECMG 1909/1911 BKN008

Decode

Destination Runways

ID Width Length Bearing (true) Bearing (mag) Surface Threshold Offset Overrun Length
03 148 ft / 45 m 8,202 ft / 2,500 m 33.16° 32.74° Asphalt 0 ft / 0 m 0 ft / 0 m
21 148 ft / 45 m 8,202 ft / 2,500 m 213.18° 212.76° Asphalt 196 ft / 60 m 0 ft / 0 m

Approach Navaids

Runway Type Ident Frequency Range Bearing (true) Bearing (mag) Slope Elevation
03 Localiser LG 109.29 MHz 18 nm / 33 km 33.10° 32.67° - 1,299 ft / 396 m (AMSL)
03 Glidescope LG 109.29 MHz 10 nm / 19 km 33.17° 32.75° 3.00° 1,299 ft / 396 m (AMSL)
21 Localiser LG 110.10 MHz 18 nm / 33 km 213.16° 212.74° - 1,271 ft / 387 m (AMSL)
21 Glidescope LG 110.10 MHz 10 nm / 19 km 213.17° 212.75° 3.00° 1,271 ft / 387 m (AMSL)
21 DME LG 110.10 MHz 18 nm / 33 km - - - 1,340 ft / 408 m (AMSL)

Popular Alternatives